createdAt,value
2023-02-11T00:00:02.000Z,1.90
2023-02-11T00:01:02.000Z,1.93
2023-02-11T00:02:02.000Z,1.90
2023-02-11T00:03:02.000Z,1.91
2023-02-11T00:04:02.000Z,1.90
2023-02-11T00:05:02.000Z,1.87
2023-02-11T00:06:02.000Z,1.87
2023-02-11T00:07:02.000Z,1.90
2023-02-11T00:08:02.000Z,1.91
2023-02-11T00:09:02.000Z,1.87
2023-02-11T00:10:02.000Z,1.90
2023-02-11T00:11:02.000Z,1.93
2023-02-11T00:12:02.000Z,1.91
2023-02-11T00:13:02.000Z,1.90
2023-02-11T00:14:02.000Z,1.94
2023-02-11T00:15:02.000Z,1.93
2023-02-11T00:16:02.000Z,1.93
2023-02-11T00:17:02.000Z,1.93
2023-02-11T00:18:02.000Z,1.93
2023-02-11T00:19:02.000Z,1.93
2023-02-11T00:20:02.000Z,1.97
2023-02-11T00:21:02.000Z,1.97
2023-02-11T00:22:02.000Z,1.98
2023-02-11T00:23:02.000Z,1.98
2023-02-11T00:24:02.000Z,1.94
2023-02-11T00:25:02.000Z,1.93
2023-02-11T00:26:02.000Z,1.89
2023-02-11T00:27:02.000Z,1.91
2023-02-11T00:28:02.000Z,1.93
2023-02-11T00:29:02.000Z,1.93
2023-02-11T00:30:02.000Z,1.90
2023-02-11T00:31:02.000Z,1.91
2023-02-11T00:32:02.000Z,1.98
2023-02-11T00:33:02.000Z,1.94
2023-02-11T00:34:02.000Z,1.94
2023-02-11T00:35:02.000Z,1.94
2023-02-11T00:36:02.000Z,2.01
2023-02-11T00:37:02.000Z,1.98
2023-02-11T00:38:02.000Z,1.98
2023-02-11T00:39:02.000Z,1.98
2023-02-11T00:40:02.000Z,1.99
2023-02-11T00:41:02.000Z,1.98
2023-02-11T00:42:02.000Z,1.99
2023-02-11T00:43:02.000Z,2.02
2023-02-11T00:44:02.000Z,1.99
2023-02-11T00:45:02.000Z,1.99
2023-02-11T00:46:02.000Z,2.08
2023-02-11T00:47:03.000Z,2.08
2023-02-11T00:48:03.000Z,2.04
2023-02-11T00:49:03.000Z,2.13
2023-02-11T00:50:03.000Z,2.09
2023-02-11T00:51:03.000Z,2.06
2023-02-11T00:52:03.000Z,2.12
2023-02-11T00:53:03.000Z,2.06
2023-02-11T00:54:03.000Z,2.04
2023-02-11T00:55:03.000Z,2.01
2023-02-11T00:56:03.000Z,1.99
2023-02-11T00:57:03.000Z,2.04
2023-02-11T00:58:03.000Z,2.04
2023-02-11T00:59:03.000Z,2.04
2023-02-11T01:00:03.000Z,2.02
2023-02-11T01:01:03.000Z,2.02
2023-02-11T01:02:03.000Z,1.98
2023-02-11T01:03:03.000Z,2.01
2023-02-11T01:04:03.000Z,2.01
2023-02-11T01:05:03.000Z,1.98
2023-02-11T01:06:03.000Z,1.98
2023-02-11T01:07:03.000Z,1.99
2023-02-11T01:08:03.000Z,1.98
2023-02-11T01:09:03.000Z,1.99
2023-02-11T01:10:03.000Z,2.04
2023-02-11T01:11:03.000Z,2.08
2023-02-11T01:12:03.000Z,2.10
2023-02-11T01:13:03.000Z,2.04
2023-02-11T01:14:03.000Z,2.06
2023-02-11T01:15:03.000Z,2.04
2023-02-11T01:16:03.000Z,2.06
2023-02-11T01:17:03.000Z,2.04
2023-02-11T01:18:03.000Z,2.04
2023-02-11T01:19:03.000Z,2.01
2023-02-11T01:20:03.000Z,2.02
2023-02-11T01:21:03.000Z,2.08
2023-02-11T01:22:03.000Z,2.09
2023-02-11T01:23:03.000Z,2.08
2023-02-11T01:24:03.000Z,2.10
2023-02-11T01:25:03.000Z,2.09
2023-02-11T01:26:03.000Z,2.13
2023-02-11T01:27:03.000Z,2.12
2023-02-11T01:28:03.000Z,2.16
2023-02-11T01:29:03.000Z,2.13
2023-02-11T01:30:03.000Z,2.13
2023-02-11T01:31:03.000Z,2.12
2023-02-11T01:32:03.000Z,2.16
2023-02-11T01:33:03.000Z,2.15
2023-02-11T01:34:03.000Z,2.15
2023-02-11T01:35:03.000Z,2.15
2023-02-11T01:36:03.000Z,2.19
2023-02-11T01:37:03.000Z,2.15
2023-02-11T01:38:03.000Z,2.17
2023-02-11T01:39:03.000Z,2.17
2023-02-11T01:40:03.000Z,2.15
2023-02-11T01:41:03.000Z,2.19
2023-02-11T01:48:21.000Z,2.19
2023-02-11T01:48:21.000Z,2.20
2023-02-11T01:49:21.000Z,2.20
2023-02-11T01:50:21.000Z,2.17
2023-02-11T01:51:21.000Z,2.22
2023-02-11T01:52:21.000Z,2.23
2023-02-11T01:53:21.000Z,2.26
2023-02-11T01:54:21.000Z,2.20
2023-02-11T01:55:21.000Z,2.23
2023-02-11T01:56:21.000Z,2.23
2023-02-11T01:57:21.000Z,2.28
2023-02-11T01:58:21.000Z,2.30
2023-02-11T01:59:21.000Z,2.33
2023-02-11T02:00:21.000Z,2.38
2023-02-11T02:01:21.000Z,2.40
2023-02-11T02:02:21.000Z,2.38
2023-02-11T02:03:21.000Z,2.44
2023-02-11T02:04:21.000Z,2.41
2023-02-11T02:05:21.000Z,2.44
2023-02-11T02:06:20.000Z,2.45
2023-02-11T02:07:20.000Z,2.46
2023-02-11T02:08:20.000Z,2.49
2023-02-11T02:09:20.000Z,2.45
2023-02-11T02:10:20.000Z,2.48
2023-02-11T02:11:20.000Z,2.49
2023-02-11T02:12:20.000Z,2.49
2023-02-11T02:13:20.000Z,2.52
2023-02-11T02:14:20.000Z,2.51
2023-02-11T02:15:20.000Z,2.51
2023-02-11T02:16:20.000Z,2.56
2023-02-11T02:17:20.000Z,2.56
2023-02-11T02:18:20.000Z,2.56
2023-02-11T02:19:20.000Z,2.53
2023-02-11T02:20:20.000Z,2.55
2023-02-11T02:21:20.000Z,2.55
2023-02-11T02:22:20.000Z,2.53
2023-02-11T02:23:20.000Z,2.53
2023-02-11T02:24:20.000Z,2.55
2023-02-11T02:25:20.000Z,2.56
2023-02-11T02:26:20.000Z,2.55
2023-02-11T02:27:20.000Z,2.56
2023-02-11T02:28:20.000Z,2.58
2023-02-11T02:29:20.000Z,2.59
2023-02-11T02:30:20.000Z,2.61
2023-02-11T02:31:20.000Z,2.64
2023-02-11T02:32:20.000Z,2.64
2023-02-11T02:33:20.000Z,2.66
2023-02-11T02:34:20.000Z,2.66
2023-02-11T02:35:20.000Z,2.66
2023-02-11T02:36:20.000Z,2.66
2023-02-11T02:37:20.000Z,2.67
2023-02-11T02:38:20.000Z,2.73
2023-02-11T02:39:20.000Z,2.70
2023-02-11T02:40:20.000Z,2.70
2023-02-11T02:41:20.000Z,2.73
2023-02-11T02:42:20.000Z,2.73
2023-02-11T02:43:20.000Z,2.71
2023-02-11T02:44:20.000Z,2.71
2023-02-11T02:45:20.000Z,2.73
2023-02-11T02:46:20.000Z,2.74
2023-02-11T02:47:20.000Z,2.71
2023-02-11T02:48:20.000Z,2.79
2023-02-11T02:49:20.000Z,2.74
2023-02-11T02:50:20.000Z,2.70
2023-02-11T02:51:20.000Z,2.73
2023-02-11T02:52:20.000Z,2.76
2023-02-11T02:53:20.000Z,2.74
2023-02-11T02:54:20.000Z,2.74
2023-02-11T02:55:20.000Z,2.79
2023-02-11T02:56:20.000Z,2.76
2023-02-11T02:57:20.000Z,2.76
2023-02-11T02:58:20.000Z,2.79
2023-02-11T02:59:20.000Z,2.77
2023-02-11T03:00:20.000Z,2.81
2023-02-11T03:01:20.000Z,2.81
2023-02-11T03:02:20.000Z,2.81
2023-02-11T03:03:20.000Z,2.88
2023-02-11T03:04:20.000Z,2.85
2023-02-11T03:05:20.000Z,2.84
2023-02-11T03:06:20.000Z,2.87
2023-02-11T03:07:20.000Z,2.85
2023-02-11T03:08:20.000Z,2.82
2023-02-11T03:09:20.000Z,2.84
2023-02-11T03:10:20.000Z,2.84
2023-02-11T03:11:20.000Z,2.82
2023-02-11T03:12:20.000Z,2.82
2023-02-11T03:13:20.000Z,2.82
2023-02-11T03:14:20.000Z,2.84
2023-02-11T03:15:20.000Z,2.84
2023-02-11T03:16:20.000Z,2.88
2023-02-11T03:17:20.000Z,2.87
2023-02-11T03:18:20.000Z,2.89
2023-02-11T03:19:20.000Z,2.91
2023-02-11T03:20:20.000Z,2.88
2023-02-11T03:21:20.000Z,2.91
2023-02-11T03:22:20.000Z,2.91
2023-02-11T03:23:20.000Z,2.89
2023-02-11T03:24:20.000Z,2.95
2023-02-11T03:25:20.000Z,2.94
2023-02-11T03:26:20.000Z,2.94
2023-02-11T03:33:38.000Z,2.95
2023-02-11T03:33:38.000Z,2.97
2023-02-11T03:34:38.000Z,2.97
2023-02-11T03:35:38.000Z,2.97
2023-02-11T03:36:38.000Z,2.98
2023-02-11T03:37:38.000Z,3.02
2023-02-11T03:38:38.000Z,3.02
2023-02-11T03:39:38.000Z,2.98
2023-02-11T03:40:38.000Z,3.02
2023-02-11T03:41:38.000Z,3.03
2023-02-11T04:15:24.000Z,3.09
2023-02-11T04:15:24.000Z,3.09
2023-02-11T04:16:24.000Z,3.09
2023-02-11T04:17:24.000Z,3.06
2023-02-11T04:18:24.000Z,3.10
2023-02-11T04:19:24.000Z,3.07
2023-02-11T04:20:24.000Z,3.13
2023-02-11T04:21:24.000Z,3.10
2023-02-11T04:22:24.000Z,3.15
2023-02-11T04:23:24.000Z,3.12
2023-02-11T04:24:24.000Z,3.13
2023-02-11T04:25:24.000Z,3.16
2023-02-11T04:26:24.000Z,3.12
2023-02-11T04:27:24.000Z,3.16
2023-02-11T04:28:24.000Z,3.12
2023-02-11T04:29:24.000Z,3.15
2023-02-11T04:30:24.000Z,3.12
2023-02-11T04:31:24.000Z,3.15
2023-02-11T04:32:24.000Z,3.13
2023-02-11T04:33:24.000Z,3.16
2023-02-11T04:34:24.000Z,3.15
2023-02-11T04:35:24.000Z,3.18
2023-02-11T04:36:24.000Z,3.18
2023-02-11T04:37:24.000Z,3.18
2023-02-11T04:38:24.000Z,3.16
2023-02-11T04:39:24.000Z,3.20
2023-02-11T04:40:24.000Z,3.24
2023-02-11T04:41:24.000Z,3.25
2023-02-11T04:42:24.000Z,3.23
2023-02-11T04:43:24.000Z,3.25
2023-02-11T04:44:24.000Z,3.30
2023-02-11T04:45:24.000Z,3.28
2023-02-11T04:46:24.000Z,3.33
2023-02-11T04:47:24.000Z,3.28
2023-02-11T04:48:24.000Z,3.31
2023-02-11T04:49:24.000Z,3.33
2023-02-11T04:50:24.000Z,3.36
2023-02-11T04:51:24.000Z,3.40
2023-02-11T04:52:24.000Z,3.39
2023-02-11T04:53:24.000Z,3.42
2023-02-11T04:54:24.000Z,3.46
2023-02-11T04:55:24.000Z,3.44
2023-02-11T04:56:24.000Z,3.49
2023-02-11T04:57:24.000Z,3.47
2023-02-11T04:58:24.000Z,3.46
2023-02-11T05:16:18.000Z,3.60
2023-02-11T05:16:18.000Z,3.60
2023-02-11T05:17:18.000Z,3.60
2023-02-11T05:18:18.000Z,3.60
2023-02-11T05:19:18.000Z,3.62
2023-02-11T05:27:35.000Z,3.75
2023-02-11T05:27:35.000Z,3.78
2023-02-11T05:28:35.000Z,3.78
2023-02-11T05:29:35.000Z,3.79
2023-02-11T05:30:35.000Z,3.79
2023-02-11T05:31:35.000Z,3.80
2023-02-11T05:32:35.000Z,3.80
2023-02-11T05:33:35.000Z,3.82
2023-02-11T05:34:35.000Z,3.85
2023-02-11T05:35:35.000Z,3.83
2023-02-11T05:36:35.000Z,3.85
2023-02-11T05:37:35.000Z,3.83
2023-02-11T05:38:35.000Z,3.88
2023-02-11T05:39:35.000Z,3.86
2023-02-11T05:40:35.000Z,3.86
2023-02-11T05:41:35.000Z,3.92
2023-02-11T05:42:35.000Z,3.89
2023-02-11T05:43:35.000Z,3.89
2023-02-11T05:44:35.000Z,3.90
2023-02-11T05:45:35.000Z,3.90
2023-02-11T05:46:35.000Z,3.92
2023-02-11T05:47:34.000Z,3.97
2023-02-11T05:48:34.000Z,3.94
2023-02-11T05:49:34.000Z,3.96
2023-02-11T05:50:34.000Z,3.94
2023-02-11T05:51:34.000Z,3.92
2023-02-11T05:52:34.000Z,3.94
2023-02-11T05:53:34.000Z,3.96
2023-02-11T05:54:34.000Z,3.94
2023-02-11T05:55:34.000Z,3.97
2023-02-11T05:56:34.000Z,3.94
2023-02-11T05:57:34.000Z,3.94
2023-02-11T05:58:34.000Z,3.94
2023-02-11T05:59:34.000Z,3.96
2023-02-11T06:00:34.000Z,3.94
2023-02-11T06:01:34.000Z,3.94
2023-02-11T06:02:34.000Z,3.96
2023-02-11T06:03:34.000Z,3.96
2023-02-11T06:04:34.000Z,3.92
2023-02-11T06:05:34.000Z,3.94
2023-02-11T06:06:34.000Z,3.90
2023-02-11T06:07:34.000Z,3.98
2023-02-11T06:08:34.000Z,3.94
2023-02-11T06:09:34.000Z,3.94
2023-02-11T06:10:34.000Z,3.96
2023-02-11T06:11:34.000Z,3.92
2023-02-11T06:12:34.000Z,3.94
2023-02-11T06:13:34.000Z,3.94
2023-02-11T06:14:34.000Z,3.97
2023-02-11T06:15:34.000Z,3.96
2023-02-11T06:16:34.000Z,3.92
2023-02-11T06:17:34.000Z,3.98
2023-02-11T06:18:34.000Z,3.97
2023-02-11T06:19:34.000Z,3.98
2023-02-11T06:20:34.000Z,3.97
2023-02-11T06:21:34.000Z,3.94
2023-02-11T06:22:33.000Z,3.97
2023-02-11T06:23:33.000Z,3.96
2023-02-11T06:24:33.000Z,4.00
2023-02-11T06:25:33.000Z,3.98
2023-02-11T06:26:33.000Z,4.00
2023-02-11T06:27:33.000Z,4.00
2023-02-11T06:28:33.000Z,3.98
2023-02-11T06:29:33.000Z,3.97
2023-02-11T06:30:33.000Z,4.00
2023-02-11T06:31:33.000Z,3.98
2023-02-11T06:32:33.000Z,4.00
2023-02-11T06:33:33.000Z,4.03
2023-02-11T06:34:33.000Z,4.01
2023-02-11T06:35:33.000Z,4.03
2023-02-11T06:36:33.000Z,4.04
2023-02-11T06:37:33.000Z,4.06
2023-02-11T06:38:33.000Z,4.04
2023-02-11T06:39:33.000Z,4.06
2023-02-11T06:40:33.000Z,4.06
2023-02-11T06:41:33.000Z,4.10
2023-02-11T06:42:33.000Z,4.07
2023-02-11T06:43:33.000Z,4.10
2023-02-11T06:44:33.000Z,4.10
2023-02-11T06:45:33.000Z,4.07
2023-02-11T06:46:33.000Z,4.07
2023-02-11T06:47:33.000Z,4.07
2023-02-11T06:48:33.000Z,4.08
2023-02-11T06:49:33.000Z,4.08
2023-02-11T06:50:33.000Z,4.07
2023-02-11T06:51:33.000Z,4.07
2023-02-11T06:52:33.000Z,4.07
2023-02-11T06:53:33.000Z,4.08
2023-02-11T06:54:33.000Z,4.06
2023-02-11T06:55:33.000Z,4.07
2023-02-11T06:56:33.000Z,4.14
2023-02-11T06:57:33.000Z,4.12
2023-02-11T06:58:32.000Z,4.14
2023-02-11T06:59:32.000Z,4.15
2023-02-11T07:00:32.000Z,4.14
2023-02-11T07:01:32.000Z,4.15
2023-02-11T07:02:32.000Z,4.15
2023-02-11T07:03:32.000Z,4.14
2023-02-11T07:04:32.000Z,4.15
2023-02-11T07:11:50.000Z,4.16
2023-02-11T07:11:50.000Z,4.21
2023-02-11T07:12:50.000Z,4.16
2023-02-11T07:13:50.000Z,4.19
2023-02-11T07:14:50.000Z,4.16
2023-02-11T07:15:50.000Z,4.19
2023-02-11T07:16:50.000Z,4.24
2023-02-11T07:17:50.000Z,4.21
2023-02-11T07:18:50.000Z,4.24
2023-02-11T07:19:50.000Z,4.22
2023-02-11T07:20:50.000Z,4.26
2023-02-11T07:21:50.000Z,4.25
2023-02-11T07:22:50.000Z,4.24
2023-02-11T07:23:50.000Z,4.26
2023-02-11T07:24:50.000Z,4.32
2023-02-11T07:25:50.000Z,4.26
2023-02-11T07:26:50.000Z,4.28
2023-02-11T07:27:50.000Z,4.33
2023-02-11T07:28:50.000Z,4.29
2023-02-11T07:29:50.000Z,4.33
2023-02-11T07:37:08.000Z,4.40
2023-02-11T07:37:08.000Z,4.37
2023-02-11T07:38:08.000Z,4.39
2023-02-11T07:39:08.000Z,4.37
2023-02-11T07:40:08.000Z,4.36
2023-02-11T07:41:08.000Z,4.42
2023-02-11T07:42:08.000Z,4.40
2023-02-11T07:43:08.000Z,4.42
2023-02-11T07:44:08.000Z,4.43
2023-02-11T07:45:08.000Z,4.44
2023-02-11T07:46:08.000Z,4.44
2023-02-11T07:47:08.000Z,4.47
2023-02-11T07:48:08.000Z,4.50
2023-02-11T07:49:08.000Z,4.52
2023-02-11T07:50:08.000Z,4.57
2023-02-11T07:51:08.000Z,4.58
2023-02-11T07:52:08.000Z,4.59
2023-02-11T07:53:08.000Z,4.61
2023-02-11T07:54:08.000Z,4.65
2023-02-11T07:55:08.000Z,4.62
2023-02-11T07:56:08.000Z,4.64
2023-02-11T07:57:08.000Z,4.64
2023-02-11T07:58:08.000Z,4.61
2023-02-11T07:59:08.000Z,4.65
2023-02-11T08:00:08.000Z,4.62
2023-02-11T08:01:08.000Z,4.67
2023-02-11T08:02:08.000Z,4.62
2023-02-11T08:03:08.000Z,4.65
2023-02-11T08:04:08.000Z,4.62
2023-02-11T08:05:08.000Z,4.64
2023-02-11T08:06:08.000Z,4.67
2023-02-11T08:07:08.000Z,4.69
2023-02-11T08:08:08.000Z,4.69
2023-02-11T08:09:08.000Z,4.70
2023-02-11T08:10:08.000Z,4.69
2023-02-11T08:11:08.000Z,4.72
2023-02-11T08:12:08.000Z,4.73
2023-02-11T08:13:08.000Z,4.76
2023-02-11T08:14:08.000Z,4.86
2023-02-11T08:15:08.000Z,4.89
2023-02-11T08:16:08.000Z,4.91
2023-02-11T08:17:08.000Z,4.91
2023-02-11T08:18:08.000Z,4.94
2023-02-11T08:19:08.000Z,4.96
2023-02-11T08:20:08.000Z,5.01
2023-02-11T08:21:08.000Z,5.01
2023-02-11T08:22:08.000Z,4.99
2023-02-11T08:23:08.000Z,4.95
2023-02-11T08:24:08.000Z,4.99
2023-02-11T08:25:08.000Z,4.98
2023-02-11T08:26:08.000Z,5.01
2023-02-11T08:27:08.000Z,4.98
2023-02-11T08:28:08.000Z,5.01
2023-02-11T08:29:08.000Z,4.99
2023-02-11T08:30:08.000Z,4.98
2023-02-11T08:31:08.000Z,5.01
2023-02-11T08:32:08.000Z,4.99
2023-02-11T08:33:08.000Z,5.05
2023-02-11T08:34:08.000Z,5.02
2023-02-11T08:35:08.000Z,5.02
2023-02-11T08:36:08.000Z,5.01
2023-02-11T08:37:08.000Z,5.02
2023-02-11T08:38:08.000Z,5.05
2023-02-11T08:39:08.000Z,5.09
2023-02-11T08:40:08.000Z,5.07
2023-02-11T08:41:08.000Z,5.10
2023-02-11T08:42:08.000Z,5.12
2023-02-11T08:43:08.000Z,5.16
2023-02-11T08:44:08.000Z,5.13
2023-02-11T08:45:07.000Z,5.19
2023-02-11T08:46:07.000Z,5.23
2023-02-11T08:47:07.000Z,5.20
2023-02-11T08:48:07.000Z,5.25
2023-02-11T08:49:07.000Z,5.25
2023-02-11T08:50:07.000Z,5.27
2023-02-11T08:51:07.000Z,5.25
2023-02-11T08:52:07.000Z,5.23
2023-02-11T08:53:07.000Z,5.28
2023-02-11T08:54:07.000Z,5.25
2023-02-11T08:55:07.000Z,5.23
2023-02-11T08:56:07.000Z,5.25
2023-02-11T08:57:07.000Z,5.23
2023-02-11T08:58:07.000Z,5.22
2023-02-11T08:59:07.000Z,5.23
2023-02-11T09:00:07.000Z,5.25
2023-02-11T09:01:07.000Z,5.28
2023-02-11T09:02:07.000Z,5.28
2023-02-11T09:03:07.000Z,5.31
2023-02-11T09:04:07.000Z,5.32
2023-02-11T09:05:07.000Z,5.35
2023-02-11T09:06:07.000Z,5.35
2023-02-11T09:07:07.000Z,5.38
2023-02-11T09:08:07.000Z,5.37
2023-02-11T09:09:07.000Z,5.37
2023-02-11T09:10:07.000Z,5.41
2023-02-11T09:11:07.000Z,5.40
2023-02-11T09:12:07.000Z,5.41
2023-02-11T09:13:07.000Z,5.40
2023-02-11T09:14:07.000Z,5.41
2023-02-11T09:15:07.000Z,5.40
2023-02-11T09:16:07.000Z,5.43
2023-02-11T09:17:07.000Z,5.43
2023-02-11T09:18:07.000Z,5.41
2023-02-11T09:19:07.000Z,5.41
2023-02-11T09:20:07.000Z,5.43
2023-02-11T09:21:07.000Z,5.45
2023-02-11T09:22:07.000Z,5.43
2023-02-11T09:23:07.000Z,5.46
2023-02-11T09:24:07.000Z,5.48
2023-02-11T09:25:07.000Z,5.48
2023-02-11T09:26:07.000Z,5.46
2023-02-11T09:27:07.000Z,5.45
2023-02-11T09:28:07.000Z,5.48
2023-02-11T09:29:07.000Z,5.45
2023-02-11T09:30:07.000Z,5.43
2023-02-11T09:31:07.000Z,5.41
2023-02-11T09:32:07.000Z,5.45
2023-02-11T09:33:07.000Z,5.48
2023-02-11T09:34:07.000Z,5.48
2023-02-11T09:35:07.000Z,5.49
2023-02-11T09:36:07.000Z,5.55
2023-02-11T09:37:07.000Z,5.53
2023-02-11T09:38:07.000Z,5.56
2023-02-11T09:39:06.000Z,5.55
2023-02-11T09:40:06.000Z,5.59
2023-02-11T09:41:06.000Z,5.59
2023-02-11T09:42:06.000Z,5.60
2023-02-11T09:43:06.000Z,5.64
2023-02-11T09:44:06.000Z,5.71
2023-02-11T09:45:06.000Z,5.74
2023-02-11T09:46:06.000Z,5.75
2023-02-11T09:47:06.000Z,5.81
2023-02-11T09:48:06.000Z,5.81
2023-02-11T09:49:06.000Z,5.81
2023-02-11T09:50:06.000Z,5.78
2023-02-11T09:51:06.000Z,5.85
2023-02-11T09:52:06.000Z,5.83
2023-02-11T09:53:06.000Z,5.85
2023-02-11T09:54:06.000Z,5.83
2023-02-11T09:55:06.000Z,5.83
2023-02-11T09:56:06.000Z,5.82
2023-02-11T09:57:06.000Z,5.78
2023-02-11T09:58:06.000Z,5.81
2023-02-11T09:59:06.000Z,5.81
2023-02-11T10:00:06.000Z,5.82
2023-02-11T10:12:41.000Z,5.93
2023-02-11T10:12:41.000Z,5.93
2023-02-11T10:13:41.000Z,5.95
2023-02-11T10:14:41.000Z,5.96
2023-02-11T10:15:41.000Z,6.03
2023-02-11T10:28:17.000Z,6.25
2023-02-11T10:28:17.000Z,6.21
2023-02-11T10:29:17.000Z,6.21
2023-02-11T10:30:17.000Z,6.25
2023-02-11T10:31:17.000Z,6.28
2023-02-11T10:32:17.000Z,6.29
2023-02-11T10:33:17.000Z,6.26
2023-02-11T10:34:17.000Z,6.30
2023-02-11T10:35:17.000Z,6.35
2023-02-11T10:36:17.000Z,6.35
2023-02-11T10:37:17.000Z,6.35
2023-02-11T10:38:17.000Z,6.32
2023-02-11T10:39:17.000Z,6.33
2023-02-11T10:40:17.000Z,6.35
2023-02-11T10:41:17.000Z,6.29
2023-02-11T10:42:17.000Z,6.30
2023-02-11T10:43:17.000Z,6.30
2023-02-11T10:44:17.000Z,6.28
2023-02-11T10:45:17.000Z,6.29
2023-02-11T10:46:17.000Z,6.28
2023-02-11T10:47:17.000Z,6.25
2023-02-11T10:48:17.000Z,6.28
2023-02-11T10:49:17.000Z,6.28
2023-02-11T10:50:17.000Z,6.26
2023-02-11T10:51:17.000Z,6.28
2023-02-11T10:52:17.000Z,6.32
2023-02-11T10:53:17.000Z,6.30
2023-02-11T10:54:16.000Z,6.35
2023-02-11T10:55:16.000Z,6.32
2023-02-11T10:56:16.000Z,6.30
2023-02-11T10:57:16.000Z,6.30
2023-02-11T10:58:16.000Z,6.30
2023-02-11T10:59:16.000Z,6.30
2023-02-11T11:00:16.000Z,6.29
2023-02-11T11:01:16.000Z,6.28
2023-02-11T11:02:16.000Z,6.32
2023-02-11T11:03:16.000Z,6.36
2023-02-11T11:04:16.000Z,6.30
2023-02-11T11:05:16.000Z,6.35
2023-02-11T11:06:16.000Z,6.35
2023-02-11T11:07:16.000Z,6.36
2023-02-11T11:08:16.000Z,6.35
2023-02-11T11:09:16.000Z,6.36
2023-02-11T11:10:16.000Z,6.33
2023-02-11T11:11:16.000Z,6.30
2023-02-11T11:12:16.000Z,6.29
2023-02-11T11:13:16.000Z,6.28
2023-02-11T11:14:16.000Z,6.35
2023-02-11T11:15:16.000Z,6.32
2023-02-11T11:16:16.000Z,6.32
2023-02-11T11:17:16.000Z,6.32
2023-02-11T11:18:16.000Z,6.29
2023-02-11T11:19:16.000Z,6.29
2023-02-11T11:20:16.000Z,6.29
2023-02-11T11:21:16.000Z,6.33
2023-02-11T11:22:16.000Z,6.30
2023-02-11T11:23:16.000Z,6.32
2023-02-11T11:24:16.000Z,6.33
2023-02-11T11:25:16.000Z,6.32
2023-02-11T11:26:16.000Z,6.36
2023-02-11T11:27:16.000Z,6.36
2023-02-11T11:28:16.000Z,6.38
2023-02-11T11:29:16.000Z,6.43
2023-02-11T11:30:16.000Z,6.44
2023-02-11T11:31:16.000Z,6.46
2023-02-11T11:59:25.000Z,6.50
2023-02-11T11:59:25.000Z,6.54
2023-02-11T12:00:25.000Z,6.50
2023-02-11T12:01:25.000Z,6.47
2023-02-11T12:02:25.000Z,6.48
2023-02-11T12:03:25.000Z,6.54
2023-02-11T12:04:25.000Z,6.48
2023-02-11T12:05:25.000Z,6.53
2023-02-11T12:06:25.000Z,6.48
2023-02-11T12:07:25.000Z,6.54
2023-02-11T13:02:04.000Z,6.59
2023-02-11T13:02:04.000Z,6.62
2023-02-11T13:03:04.000Z,6.56
2023-02-11T13:04:04.000Z,6.56
2023-02-11T13:05:04.000Z,6.58
2023-02-11T13:06:04.000Z,6.56
2023-02-11T13:07:04.000Z,6.58
2023-02-11T13:08:04.000Z,6.58
2023-02-11T13:09:04.000Z,6.61
2023-02-11T13:10:04.000Z,6.62
2023-02-11T13:11:04.000Z,6.58
2023-02-11T13:12:04.000Z,6.61
2023-02-11T13:13:04.000Z,6.59
2023-02-11T13:14:04.000Z,6.63
2023-02-11T13:15:04.000Z,6.59
2023-02-11T13:16:04.000Z,6.58
2023-02-11T13:17:04.000Z,6.54
2023-02-11T13:18:04.000Z,6.56
2023-02-11T13:19:04.000Z,6.53
2023-02-11T13:20:04.000Z,6.54
2023-02-11T13:21:04.000Z,6.51
2023-02-11T13:22:04.000Z,6.53
2023-02-11T13:23:04.000Z,6.51
2023-02-11T13:24:04.000Z,6.51
2023-02-11T13:25:04.000Z,6.53
2023-02-11T13:26:04.000Z,6.51
2023-02-11T13:27:04.000Z,6.50
2023-02-11T13:28:04.000Z,6.50
2023-02-11T13:29:04.000Z,6.50
2023-02-11T13:30:04.000Z,6.56
2023-02-11T13:31:04.000Z,6.56
2023-02-11T13:32:04.000Z,6.58
2023-02-11T13:33:04.000Z,6.53
2023-02-11T13:34:04.000Z,6.58
2023-02-11T13:35:04.000Z,6.62
2023-02-11T13:36:04.000Z,6.56
2023-02-11T13:37:04.000Z,6.59
2023-02-11T13:38:04.000Z,6.58
2023-02-11T13:39:04.000Z,6.59
2023-02-11T13:40:04.000Z,6.66
2023-02-11T13:41:04.000Z,6.61
2023-02-11T13:42:04.000Z,6.61
2023-02-11T13:43:04.000Z,6.58
2023-02-11T13:44:04.000Z,6.59
2023-02-11T13:45:04.000Z,6.58
2023-02-11T13:46:04.000Z,6.63
2023-02-11T13:47:04.000Z,6.66
2023-02-11T13:48:04.000Z,6.62
2023-02-11T13:49:04.000Z,6.68
2023-02-11T13:50:04.000Z,6.66
2023-02-11T13:51:04.000Z,6.69
2023-02-11T13:52:04.000Z,6.65
2023-02-11T13:53:04.000Z,6.68
2023-02-11T13:54:04.000Z,6.66
2023-02-11T13:55:04.000Z,6.73
2023-02-11T13:56:04.000Z,6.69
2023-02-11T13:57:04.000Z,6.69
2023-02-11T13:58:04.000Z,6.73
2023-02-11T13:59:04.000Z,6.71
2023-02-11T14:00:04.000Z,6.72
2023-02-11T14:01:04.000Z,6.73
2023-02-11T14:02:04.000Z,6.73
2023-02-11T14:03:04.000Z,6.68
2023-02-11T14:04:05.000Z,6.68
2023-02-11T14:05:05.000Z,6.73
2023-02-11T14:06:05.000Z,6.71
2023-02-11T14:07:05.000Z,6.71
2023-02-11T14:08:05.000Z,6.73
2023-02-11T14:09:05.000Z,6.72
2023-02-11T14:10:05.000Z,6.71
2023-02-11T14:11:05.000Z,6.77
2023-02-11T14:12:05.000Z,6.77
2023-02-11T14:13:05.000Z,6.77
2023-02-11T14:14:05.000Z,6.79
2023-02-11T14:15:05.000Z,6.81
2023-02-11T14:16:05.000Z,6.80
2023-02-11T14:17:05.000Z,6.81
2023-02-11T14:18:05.000Z,6.83
2023-02-11T14:19:05.000Z,6.87
2023-02-11T14:20:05.000Z,6.81
2023-02-11T14:21:05.000Z,6.80
2023-02-11T14:22:05.000Z,6.84
2023-02-11T14:23:05.000Z,6.81
2023-02-11T14:24:05.000Z,6.83
2023-02-11T14:25:05.000Z,6.84
2023-02-11T14:26:05.000Z,6.83
2023-02-11T14:27:05.000Z,6.84
2023-02-11T14:28:05.000Z,6.81
2023-02-11T14:29:05.000Z,6.81
2023-02-11T14:30:05.000Z,6.83
2023-02-11T14:31:05.000Z,6.81
2023-02-11T14:32:05.000Z,6.79
2023-02-11T14:33:05.000Z,6.80
2023-02-11T14:34:05.000Z,6.81
2023-02-11T14:35:05.000Z,6.81
2023-02-11T14:36:05.000Z,6.81
2023-02-11T14:37:05.000Z,6.80
2023-02-11T14:38:05.000Z,6.79
2023-02-11T14:39:05.000Z,6.81
2023-02-11T14:40:05.000Z,6.79
2023-02-11T14:41:05.000Z,6.81
2023-02-11T14:42:05.000Z,6.77
2023-02-11T14:43:05.000Z,6.81
2023-02-11T14:44:05.000Z,6.79
2023-02-11T14:45:05.000Z,6.80
2023-02-11T14:46:05.000Z,6.79
2023-02-11T14:47:05.000Z,6.81
2023-02-11T14:48:05.000Z,6.83
2023-02-11T14:49:05.000Z,6.80
2023-02-11T14:50:05.000Z,6.80
2023-02-11T14:51:05.000Z,6.81
2023-02-11T14:52:05.000Z,6.79
2023-02-11T14:53:05.000Z,6.79
2023-02-11T14:54:05.000Z,6.79
2023-02-11T14:55:05.000Z,6.80
2023-02-11T14:56:05.000Z,6.83
2023-02-11T14:57:05.000Z,6.84
2023-02-11T14:58:05.000Z,6.87
2023-02-11T14:59:05.000Z,6.81
2023-02-11T15:00:05.000Z,6.84
2023-02-11T15:01:05.000Z,6.84
2023-02-11T15:02:05.000Z,6.86
2023-02-11T15:03:05.000Z,6.87
2023-02-11T15:04:05.000Z,6.90
2023-02-11T15:05:05.000Z,6.89
2023-02-11T15:06:05.000Z,6.89
2023-02-11T15:07:05.000Z,6.87
2023-02-11T15:08:05.000Z,6.84
2023-02-11T15:09:05.000Z,6.87
2023-02-11T15:10:05.000Z,6.91
2023-02-11T15:11:05.000Z,6.87
2023-02-11T15:12:05.000Z,6.86
2023-02-11T15:13:05.000Z,6.87
2023-02-11T15:14:05.000Z,6.86
2023-02-11T15:15:05.000Z,6.84
2023-02-11T15:16:05.000Z,6.90
2023-02-11T15:17:05.000Z,6.90
2023-02-11T15:18:05.000Z,6.89
2023-02-11T15:19:05.000Z,6.98
2023-02-11T15:20:05.000Z,6.91
2023-02-11T15:21:05.000Z,6.90
2023-02-11T15:22:05.000Z,6.91
2023-02-11T15:23:05.000Z,6.94
2023-02-11T15:24:05.000Z,6.91
2023-02-11T15:25:05.000Z,6.95
2023-02-11T15:26:05.000Z,6.91
2023-02-11T15:27:05.000Z,6.95
2023-02-11T15:28:05.000Z,6.97
2023-02-11T15:29:05.000Z,6.98
2023-02-11T15:30:05.000Z,6.99
2023-02-11T15:31:05.000Z,6.99
2023-02-11T15:32:05.000Z,7.02
2023-02-11T15:33:05.000Z,7.02
2023-02-11T15:34:05.000Z,7.07
2023-02-11T15:35:05.000Z,7.04
2023-02-11T15:42:23.000Z,7.09
2023-02-11T15:42:23.000Z,7.07
2023-02-11T15:43:23.000Z,7.09
2023-02-11T15:44:23.000Z,7.12
2023-02-11T15:45:23.000Z,7.12
2023-02-11T15:46:22.000Z,7.09
2023-02-11T15:47:22.000Z,7.07
2023-02-11T15:48:22.000Z,7.12
2023-02-11T15:49:22.000Z,7.12
2023-02-11T15:50:22.000Z,7.16
2023-02-11T15:51:22.000Z,7.12
2023-02-11T15:52:22.000Z,7.13
2023-02-11T15:53:22.000Z,7.09
2023-02-11T15:54:22.000Z,7.13
2023-02-11T15:55:22.000Z,7.08
2023-02-11T15:56:22.000Z,7.09
2023-02-11T15:57:22.000Z,7.13
2023-02-11T15:58:22.000Z,7.08
2023-02-11T15:59:22.000Z,7.12
2023-02-11T16:00:22.000Z,7.12
2023-02-11T16:01:22.000Z,7.08
2023-02-11T16:02:22.000Z,7.12
2023-02-11T16:03:22.000Z,7.07
2023-02-11T16:04:22.000Z,7.13
2023-02-11T16:05:22.000Z,7.07
2023-02-11T16:06:22.000Z,7.07
2023-02-11T16:07:22.000Z,7.08
2023-02-11T16:08:22.000Z,7.07
2023-02-11T16:09:22.000Z,7.02
2023-02-11T16:10:22.000Z,7.07
2023-02-11T16:11:22.000Z,7.08
2023-02-11T16:12:22.000Z,7.04
2023-02-11T16:13:22.000Z,7.05
2023-02-11T16:14:21.000Z,7.02
2023-02-11T16:15:21.000Z,7.04
2023-02-11T16:16:21.000Z,7.05
2023-02-11T16:17:21.000Z,7.04
2023-02-11T16:18:21.000Z,7.04